Time;durP1;ratioP1;P1;durP2;ratioP2;P2;SDS_P1;SDS_P2;PMS_P1;PMS_P2;Temp;Humidity;BMP_temperature;BMP_pressure;BME280_temperature;BME280_humidity;BME280_pressure;Samples;Min_cycle;Max_cycle;Signal;HPM_P1;HPM_P2
2023/10/29 14:37:16;;;;;;;12.70;5.05;;;19.80;66.20;;;;;;5108475;27;20449;-56
2023/10/29 14:39:42;;;;;;;14.38;4.93;;;20.00;66.50;;;;;;5118958;22;20052;-58
2023/10/29 14:42:08;;;;;;;11.38;5.28;;;20.10;66.90;;;;;;5108903;28;20449;-57
2023/10/29 14:44:34;;;;;;;29.35;6.50;;;20.10;66.90;;;;;;5109221;28;20020;-57
2023/10/29 14:47:00;;;;;;;18.63;5.85;;;20.20;68.80;;;;;;5108911;28;20556;-56
2023/10/29 14:49:26;;;;;;;23.80;5.85;;;20.20;67.60;;;;;;5109077;28;20027;-58
2023/10/29 14:51:51;;;;;;;21.92;6.90;;;20.20;67.40;;;;;;5109009;28;20020;-59
2023/10/29 14:54:17;;;;;;;18.33;6.28;;;20.20;67.30;;;;;;5108627;28;20085;-59
2023/10/29 14:56:43;;;;;;;23.35;7.03;;;20.10;66.50;;;;;;5098639;28;20503;-60
2023/10/29 14:59:12;;;;;;;28.20;7.43;;;20.10;67.40;;;;;;5088873;28;20039;-57
2023/10/29 15:01:40;;;;;;;20.60;7.40;;;20.10;66.90;;;;;;5094037;28;20085;-59
2023/10/29 15:04:06;;;;;;;18.63;7.25;;;20.10;67.00;;;;;;5098288;28;20127;-60
2023/10/29 15:06:32;;;;;;;24.23;8.70;;;20.10;67.40;;;;;;5098856;28;20555;-61
2023/10/29 15:08:58;;;;;;;27.50;8.20;;;20.20;69.30;;;;;;5093808;28;20111;-61
2023/10/29 15:11:24;;;;;;;23.73;7.75;;;20.10;68.00;;;;;;5098654;28;20047;-60
2023/10/29 15:13:50;;;;;;;19.15;7.13;;;20.10;68.40;;;;;;5094968;28;20060;-60
2023/10/29 15:16:16;;;;;;;17.52;6.85;;;20.10;68.30;;;;;;5101244;28;20041;-58
2023/10/29 15:18:41;;;;;;;28.50;7.28;;;20.20;68.20;;;;;;5094056;28;20116;-60
2023/10/29 15:21:08;;;;;;;21.40;7.35;;;20.10;68.10;;;;;;5098542;28;20361;-60
2023/10/29 15:23:35;;;;;;;29.48;7.22;;;20.20;68.30;;;;;;5089239;28;20028;-60
2023/10/29 15:26:02;;;;;;;34.65;8.73;;;20.20;68.10;;;;;;5097183;28;20020;-61
2023/10/29 15:28:28;;;;;;;23.27;8.23;;;20.20;68.20;;;;;;5093984;28;20088;-61
2023/10/29 15:30:54;;;;;;;22.08;8.35;;;20.20;68.20;;;;;;5097617;28;20119;-61
2023/10/29 15:33:20;;;;;;;29.70;8.10;;;20.20;67.70;;;;;;5095782;28;20149;-60
2023/10/29 15:35:46;;;;;;;16.08;6.63;;;20.20;67.80;;;;;;5096140;28;20170;-60
2023/10/29 15:38:13;;;;;;;28.33;7.57;;;20.20;67.50;;;;;;5083643;28;20040;-60
2023/10/29 15:40:40;;;;;;;19.83;8.05;;;20.20;67.80;;;;;;5080334;28;20399;-60
2023/10/29 15:43:05;;;;;;;23.80;8.90;;;20.20;68.00;;;;;;5082873;28;20058;-60
2023/10/29 15:45:31;;;;;;;33.50;9.52;;;20.20;68.10;;;;;;5080323;28;20055;-59
2023/10/29 15:47:57;;;;;;;37.03;9.90;;;20.30;67.80;;;;;;5081471;28;20016;-61
2023/10/29 15:50:23;;;;;;;26.73;8.85;;;20.30;69.20;;;;;;5082973;28;20024;-55
2023/10/29 15:52:49;;;;;;;31.52;9.73;;;20.40;69.20;;;;;;5086498;28;20113;-54
2023/10/29 15:55:14;;;;;;;30.98;9.82;;;20.50;69.50;;;;;;5080667;28;20033;-56
2023/10/29 15:57:40;;;;;;;30.42;9.80;;;20.50;70.40;;;;;;5082946;28;20043;-59
2023/10/29 16:00:08;;;;;;;25.55;8.70;;;20.50;69.00;;;;;;5083365;28;20032;-59
2023/10/29 16:02:35;;;;;;;28.73;8.77;;;20.50;69.00;;;;;;5077262;28;20028;-59
2023/10/29 16:05:00;;;;;;;26.15;8.98;;;20.50;68.20;;;;;;5083200;28;20027;-56
2023/10/29 16:07:26;;;;;;;23.08;8.80;;;20.50;67.90;;;;;;5076511;28;20028;-59
2023/10/29 16:09:52;;;;;;;22.85;8.38;;;20.50;68.20;;;;;;5083136;28;20515;-57
2023/10/29 16:12:20;;;;;;;28.38;9.15;;;20.60;68.30;;;;;;5058356;28;20071;-50
2023/10/29 16:14:46;;;;;;;29.08;9.07;;;20.60;68.20;;;;;;5082761;28;20032;-57
2023/10/29 16:17:13;;;;;;;26.10;8.73;;;20.60;68.20;;;;;;5075924;28;20466;-59
2023/10/29 16:19:39;;;;;;;34.45;9.73;;;20.60;68.30;;;;;;5085865;28;20099;-58
2023/10/29 16:22:04;;;;;;;21.23;8.73;;;20.60;68.30;;;;;;5086607;28;20099;-59
2023/10/29 16:24:32;;;;;;;30.00;9.07;;;20.60;68.20;;;;;;5083870;28;20078;-59
2023/10/29 16:26:58;;;;;;;28.25;8.70;;;20.60;68.20;;;;;;5088820;28;20055;-58
2023/10/29 16:29:24;;;;;;;28.63;9.10;;;20.60;68.40;;;;;;5088764;28;20028;-56
2023/10/29 16:31:50;;;;;;;24.55;8.43;;;20.60;68.20;;;;;;5083359;28;20070;-56
2023/10/29 16:34:17;;;;;;;24.98;8.15;;;20.60;68.20;;;;;;5068119;28;20055;-58
2023/10/29 16:36:43;;;;;;;22.20;8.93;;;20.60;68.30;;;;;;5086633;28;20029;-55
2023/10/29 16:39:09;;;;;;;24.85;8.32;;;20.60;68.20;;;;;;5084601;28;20506;-59
2023/10/29 16:41:35;;;;;;;26.90;9.48;;;20.60;68.20;;;;;;5084710;28;20433;-55
2023/10/29 16:44:01;;;;;;;26.35;8.93;;;20.60;68.30;;;;;;5086372;28;20032;-58
2023/10/29 16:46:29;;;;;;;26.70;8.98;;;20.60;68.20;;;;;;5081250;28;20028;-54
2023/10/29 16:48:55;;;;;;;29.02;9.02;;;20.60;68.00;;;;;;5084578;28;20097;-53
2023/10/29 16:51:21;;;;;;;28.23;9.60;;;20.70;67.90;;;;;;5087165;28;20028;-55
2023/10/29 16:53:47;;;;;;;28.17;9.20;;;20.70;68.20;;;;;;5083522;28;20024;-54
2023/10/29 16:56:12;;;;;;;25.95;8.90;;;20.70;68.20;;;;;;5083852;28;20035;-50
2023/10/29 16:58:40;;;;;;;24.05;8.98;;;20.70;68.40;;;;;;5086501;28;20373;-54
2023/10/29 17:01:06;;;;;;;23.77;8.73;;;20.70;68.20;;;;;;5085642;28;20394;-50
2023/10/29 17:03:31;;;;;;;28.05;9.15;;;20.80;68.30;;;;;;5050061;28;20024;-57
2023/10/29 17:05:57;;;;;;;34.50;8.90;;;20.80;68.30;;;;;;5082987;28;20535;-54
2023/10/29 17:08:23;;;;;;;19.73;8.30;;;20.80;68.40;;;;;;5086845;28;20016;-51
2023/10/29 17:10:49;;;;;;;28.98;9.13;;;20.80;68.20;;;;;;5085821;28;20119;-55
2023/10/29 17:13:16;;;;;;;24.65;9.18;;;20.80;68.60;;;;;;5068015;28;20103;-57
2023/10/29 17:15:42;;;;;;;29.90;9.80;;;20.80;72.00;;;;;;5064685;28;20056;-56
2023/10/29 17:18:08;;;;;;;25.98;8.18;;;20.90;72.80;;;;;;5081311;28;20553;-57
2023/10/29 17:20:34;;;;;;;25.63;8.70;;;20.90;71.50;;;;;;5083652;28;20062;-57
2023/10/29 17:23:00;;;;;;;27.27;8.75;;;20.90;69.30;;;;;;5084446;28;20028;-57
2023/10/29 17:25:26;;;;;;;27.08;8.65;;;20.90;70.40;;;;;;5084867;28;20073;-54
2023/10/29 17:27:51;;;;;;;26.35;8.90;;;20.80;69.20;;;;;;5086969;28;20039;-56
2023/10/29 17:30:18;;;;;;;26.13;9.25;;;20.80;69.60;;;;;;5084965;28;20056;-52
2023/10/29 17:32:44;;;;;;;24.27;9.52;;;20.80;69.30;;;;;;5080365;28;20028;-53
2023/10/29 17:35:09;;;;;;;24.15;9.43;;;20.80;69.30;;;;;;5085631;28;20060;-57
2023/10/29 17:37:35;;;;;;;24.35;8.02;;;20.80;69.10;;;;;;5082397;28;20056;-54
2023/10/29 17:40:01;;;;;;;19.88;8.50;;;20.70;68.90;;;;;;5084820;28;20039;-57
2023/10/29 17:42:29;;;;;;;20.13;8.65;;;20.80;69.10;;;;;;5086382;28;20546;-52
2023/10/29 17:44:55;;;;;;;19.98;9.02;;;20.80;69.30;;;;;;5084233;28;20081;-53
2023/10/29 17:47:20;;;;;;;26.13;8.98;;;20.80;69.30;;;;;;5085840;28;20024;-54
2023/10/29 17:49:46;;;;;;;22.70;8.73;;;20.70;69.20;;;;;;5086896;28;20024;-54
2023/10/29 17:52:12;;;;;;;26.30;9.85;;;20.70;69.20;;;;;;5088176;28;20109;-53
2023/10/29 17:54:38;;;;;;;21.80;9.15;;;20.70;69.20;;;;;;5082959;28;20047;-56
2023/10/29 17:57:03;;;;;;;24.30;9.65;;;20.70;69.10;;;;;;5084190;28;20024;-55
2023/10/29 17:59:29;;;;;;;22.02;9.60;;;20.70;69.10;;;;;;5085202;28;20050;-53
2023/10/29 18:01:55;;;;;;;23.83;9.63;;;20.70;69.10;;;;;;5084709;28;20483;-54
2023/10/29 18:04:21;;;;;;;22.60;9.15;;;20.70;69.00;;;;;;5082222;28;20491;-56
2023/10/29 18:06:54;;;;;;;25.65;10.23;;;20.70;68.90;;;;;;5083273;28;20037;-55
2023/10/29 18:09:19;;;;;;;31.13;10.85;;;20.70;68.90;;;;;;5085505;28;20036;-51
2023/10/29 18:11:45;;;;;;;22.67;10.40;;;20.70;69.00;;;;;;5084256;28;20028;-57
2023/10/29 18:14:11;;;;;;;54.80;13.40;;;20.70;68.90;;;;;;5089604;28;20030;-57
2023/10/29 18:16:37;;;;;;;93.40;17.02;;;20.70;69.20;;;;;;5089318;28;20521;-54
2023/10/29 18:19:04;;;;;;;47.42;14.57;;;20.70;70.00;;;;;;5089380;28;20108;-57
2023/10/29 18:21:30;;;;;;;54.78;12.60;;;20.70;70.00;;;;;;5089457;28;20031;-58
2023/10/29 18:23:56;;;;;;;29.17;11.02;;;20.70;69.50;;;;;;5070530;28;20066;-52
2023/10/29 18:26:23;;;;;;;36.58;11.82;;;20.70;69.50;;;;;;5088955;28;20132;-55
2023/10/29 18:28:49;;;;;;;30.77;11.05;;;20.60;69.80;;;;;;5089253;28;20059;-57
2023/10/29 18:31:15;;;;;;;35.22;12.15;;;20.60;69.80;;;;;;5089697;28;20055;-54
2023/10/29 18:33:41;;;;;;;34.30;11.57;;;20.60;69.80;;;;;;5089340;28;20032;-55
2023/10/29 18:36:10;;;;;;;33.47;10.70;;;20.60;69.40;;;;;;5089378;28;20036;-53
2023/10/29 18:38:37;;;;;;;28.33;12.13;;;20.60;69.50;;;;;;5089192;28;20032;-57
2023/10/29 18:41:12;;;;;;;33.75;12.27;;;20.60;69.40;;;;;;5089606;28;20028;-57
2023/10/29 18:43:38;;;;;;;30.73;11.05;;;20.50;69.40;;;;;;5089762;28;20099;-53
2023/10/29 18:46:08;;;;;;;30.33;12.15;;;20.60;69.40;;;;;;5089088;28;20032;-57
2023/10/29 18:48:34;;;;;;;29.92;11.13;;;20.50;69.30;;;;;;5089155;28;20507;-57
2023/10/29 18:51:01;;;;;;;36.80;11.90;;;20.50;69.20;;;;;;5089597;28;20529;-54
2023/10/29 18:53:27;;;;;;;26.15;11.52;;;20.50;69.20;;;;;;5089540;28;20020;-57
2023/10/29 18:55:53;;;;;;;26.10;11.75;;;20.50;69.10;;;;;;5080378;28;20111;-55
2023/10/29 18:58:19;;;;;;;39.00;12.77;;;20.50;69.70;;;;;;5084778;28;20030;-56
2023/10/29 19:00:45;;;;;;;42.70;11.63;;;20.60;71.00;;;;;;5086782;28;20111;-50
2023/10/29 19:03:11;;;;;;;34.40;11.35;;;20.60;70.50;;;;;;5087551;28;20035;-53
2023/10/29 19:05:37;;;;;;;35.03;12.18;;;20.50;70.80;;;;;;5088141;28;20502;-55
2023/10/29 19:08:03;;;;;;;37.38;11.95;;;20.60;71.20;;;;;;5066305;28;20032;-56
2023/10/29 19:10:30;;;;;;;32.13;13.75;;;20.60;72.50;;;;;;5089032;28;20024;-58
2023/10/29 19:12:56;;;;;;;32.17;18.08;;;20.80;74.00;;;;;;5090463;28;20020;-57
2023/10/29 19:15:22;;;;;;;32.25;14.85;;;20.90;72.80;;;;;;5092826;28;20449;-57
2023/10/29 19:17:47;;;;;;;37.70;20.83;;;20.90;72.40;;;;;;5092739;28;20027;-55
2023/10/29 19:20:13;;;;;;;51.30;27.45;;;21.00;73.20;;;;;;5092926;28;20436;-52
2023/10/29 19:22:39;;;;;;;36.83;16.85;;;21.00;73.50;;;;;;5092963;28;20016;-58
2023/10/29 19:25:06;;;;;;;37.83;14.70;;;21.10;72.50;;;;;;5092837;28;20032;-57
2023/10/29 19:27:32;;;;;;;38.47;15.57;;;21.20;72.00;;;;;;5081915;28;20074;-57
2023/10/29 19:29:58;;;;;;;40.85;15.27;;;21.10;71.70;;;;;;5077094;28;20020;-57
2023/10/29 19:32:24;;;;;;;37.80;16.30;;;21.20;72.80;;;;;;5078837;28;20435;-57
2023/10/29 19:34:51;;;;;;;39.13;16.83;;;21.20;73.10;;;;;;5076757;28;20035;-54
2023/10/29 19:37:18;;;;;;;52.05;19.05;;;21.20;73.00;;;;;;5076498;28;20463;-59
2023/10/29 19:39:44;;;;;;;51.90;18.33;;;21.30;72.60;;;;;;5077771;28;20086;-58
2023/10/29 19:42:10;;;;;;;50.50;16.05;;;21.30;72.70;;;;;;5073020;28;20025;-58
2023/10/29 19:44:40;;;;;;;36.30;16.38;;;21.30;74.40;;;;;;5077185;28;20012;-57
2023/10/29 19:47:06;;;;;;;39.80;15.30;;;21.30;74.30;;;;;;5076963;28;20031;-52
2023/10/29 19:49:34;;;;;;;31.52;11.68;;;21.20;72.50;;;;;;5074800;28;20446;-58
2023/10/29 19:52:00;;;;;;;23.92;9.40;;;21.00;72.60;;;;;;5073415;28;20023;-56
2023/10/29 19:54:26;;;;;;;21.75;7.85;;;20.90;71.80;;;;;;5079475;28;20028;-53
2023/10/29 19:56:52;;;;;;;24.95;6.55;;;20.90;71.00;;;;;;5078660;28;20028;-54
2023/10/29 19:59:18;;;;;;;21.15;7.35;;;20.80;70.20;;;;;;5081480;28;20032;-51
2023/10/29 20:01:44;;;;;;;26.13;7.05;;;20.80;70.80;;;;;;5082342;28;20030;-52
2023/10/29 20:04:09;;;;;;;18.17;6.97;;;20.80;71.20;;;;;;5085506;28;20017;-54
2023/10/29 20:06:35;;;;;;;22.30;6.88;;;20.80;71.20;;;;;;5086092;28;20428;-56
2023/10/29 20:09:01;;;;;;;22.60;7.05;;;20.80;71.50;;;;;;5090124;28;20020;-49
2023/10/29 20:11:27;;;;;;;23.40;7.45;;;20.70;72.00;;;;;;5090355;28;20112;-56
2023/10/29 20:13:53;;;;;;;22.10;7.13;;;20.70;71.90;;;;;;5090107;28;20024;-55
2023/10/29 20:16:19;;;;;;;23.63;7.18;;;20.70;72.20;;;;;;5090099;28;20035;-54
2023/10/29 20:18:46;;;;;;;19.08;6.60;;;20.60;72.30;;;;;;5087486;28;20482;-56
2023/10/29 20:21:13;;;;;;;20.27;6.90;;;20.70;72.40;;;;;;5091645;28;20581;-55
2023/10/29 20:23:39;;;;;;;21.77;7.53;;;20.70;72.50;;;;;;5084323;28;20043;-54
2023/10/29 20:26:12;;;;;;;22.10;7.18;;;20.60;72.70;;;;;;5087599;28;21588;-56
2023/10/29 20:28:38;;;;;;;22.90;7.50;;;20.60;72.80;;;;;;5085921;28;20020;-49
2023/10/29 20:31:04;;;;;;;22.73;6.88;;;20.60;72.80;;;;;;5091013;28;20024;-57
2023/10/29 20:33:30;;;;;;;19.13;7.20;;;20.60;72.80;;;;;;5085231;28;20562;-57
2023/10/29 20:35:56;;;;;;;30.73;8.73;;;20.60;73.40;;;;;;5089656;28;20039;-56
2023/10/29 20:38:22;;;;;;;22.45;7.95;;;20.60;73.90;;;;;;5090310;28;20032;-56
2023/10/29 20:40:48;;;;;;;21.80;8.38;;;20.60;73.50;;;;;;5116312;22;20574;-55
2023/10/29 20:43:15;;;;;;;24.20;7.80;;;20.60;73.80;;;;;;5104909;28;20028;-56
2023/10/29 20:45:40;;;;;;;21.50;7.90;;;20.60;74.10;;;;;;5088571;28;20024;-56
2023/10/29 20:48:06;;;;;;;21.70;7.88;;;20.60;73.80;;;;;;5084234;28;20031;-52
2023/10/29 20:50:32;;;;;;;23.15;7.85;;;20.70;73.70;;;;;;5082259;28;20020;-52
2023/10/29 20:52:59;;;;;;;20.23;7.10;;;20.60;73.80;;;;;;5077336;28;20495;-55
2023/10/29 20:55:26;;;;;;;23.95;7.30;;;20.60;74.10;;;;;;5081102;28;20027;-56
2023/10/29 20:57:52;;;;;;;24.50;7.38;;;20.60;74.10;;;;;;5071791;28;20020;-56
2023/10/29 21:00:18;;;;;;;20.52;8.00;;;20.60;74.10;;;;;;5073382;28;20549;-55
2023/10/29 21:02:44;;;;;;;22.35;7.47;;;20.60;74.00;;;;;;5074559;28;20032;-55
2023/10/29 21:05:10;;;;;;;18.63;7.32;;;20.60;74.00;;;;;;5082192;28;20398;-56
2023/10/29 21:07:36;;;;;;;18.20;6.75;;;20.60;74.30;;;;;;5079714;28;20017;-56
2023/10/29 21:10:03;;;;;;;17.45;6.88;;;20.60;74.10;;;;;;5072857;28;20016;-55
2023/10/29 21:12:29;;;;;;;17.48;7.28;;;20.60;74.50;;;;;;5075387;28;20028;-53
2023/10/29 21:14:55;;;;;;;21.05;6.90;;;20.60;74.60;;;;;;5079923;28;20031;-51
2023/10/29 21:17:21;;;;;;;16.92;6.75;;;20.60;74.20;;;;;;5075131;28;20131;-56
2023/10/29 21:19:47;;;;;;;21.30;7.13;;;20.60;74.40;;;;;;5073091;28;20047;-53
2023/10/29 21:22:13;;;;;;;18.48;7.30;;;20.60;74.30;;;;;;5079853;28;20488;-53
2023/10/29 21:24:40;;;;;;;20.95;7.28;;;20.60;74.20;;;;;;5079282;28;20110;-55
2023/10/29 21:27:06;;;;;;;16.92;7.28;;;20.60;73.90;;;;;;5080271;28;20032;-53
2023/10/29 21:29:31;;;;;;;18.15;6.32;;;20.60;74.10;;;;;;5073039;28;20035;-54
2023/10/29 21:31:57;;;;;;;15.70;6.80;;;20.60;74.60;;;;;;5078101;28;20078;-54
2023/10/29 21:34:25;;;;;;;19.20;6.70;;;20.60;74.30;;;;;;5073445;28;20105;-54
2023/10/29 21:36:50;;;;;;;17.80;7.43;;;20.60;74.30;;;;;;5075251;28;20090;-56
2023/10/29 21:39:16;;;;;;;16.63;6.88;;;20.60;74.50;;;;;;5076080;28;20135;-55
2023/10/29 21:41:42;;;;;;;14.98;6.40;;;20.60;74.60;;;;;;5076864;28;20139;-55
2023/10/29 21:44:08;;;;;;;20.00;7.05;;;20.60;74.70;;;;;;5074702;28;20439;-57
2023/10/29 21:46:34;;;;;;;18.23;6.97;;;20.60;74.70;;;;;;5082873;28;20110;-57
2023/10/29 21:49:00;;;;;;;16.05;6.93;;;20.60;74.80;;;;;;5084118;28;20032;-57
2023/10/29 21:51:26;;;;;;;15.40;6.65;;;20.50;74.40;;;;;;5077395;28;20361;-54
2023/10/29 21:53:52;;;;;;;23.48;6.22;;;20.50;74.80;;;;;;5079096;28;20036;-57
2023/10/29 21:56:17;;;;;;;15.40;6.20;;;20.50;74.90;;;;;;5080693;28;20024;-57
2023/10/29 21:58:43;;;;;;;15.07;6.40;;;20.50;74.80;;;;;;5078811;28;20126;-57
2023/10/29 22:01:12;;;;;;;16.83;5.70;;;20.50;74.90;;;;;;5073702;28;20391;-56
2023/10/29 22:03:38;;;;;;;22.83;6.30;;;20.50;75.50;;;;;;5071899;28;20070;-57
2023/10/29 22:06:06;;;;;;;16.85;6.65;;;20.60;74.60;;;;;;5070210;28;20024;-57
2023/10/29 22:08:32;;;;;;;13.15;5.68;;;20.50;75.00;;;;;;5072203;28;20020;-58
2023/10/29 22:10:58;;;;;;;15.02;6.60;;;20.50;75.00;;;;;;5074935;28;20016;-55
2023/10/29 22:13:25;;;;;;;12.30;5.78;;;20.50;75.00;;;;;;5073091;28;20110;-54
2023/10/29 22:15:52;;;;;;;13.45;6.28;;;20.50;75.00;;;;;;5077625;28;20025;-58
2023/10/29 22:18:18;;;;;;;15.48;6.35;;;20.50;75.00;;;;;;5087938;28;20089;-55
2023/10/29 22:20:44;;;;;;;16.60;6.10;;;20.50;75.20;;;;;;5075628;28;20502;-56
2023/10/29 22:23:10;;;;;;;13.93;5.82;;;20.50;75.10;;;;;;5077164;28;20024;-57
2023/10/29 22:25:36;;;;;;;14.45;5.60;;;20.50;75.00;;;;;;5082754;28;20036;-57
2023/10/29 22:28:03;;;;;;;18.08;6.07;;;20.50;75.10;;;;;;5075501;28;20717;-58
2023/10/29 22:30:28;;;;;;;13.02;5.35;;;20.50;75.00;;;;;;5073709;28;20043;-54
2023/10/29 22:32:54;;;;;;;16.23;6.03;;;20.50;75.20;;;;;;5072216;28;20483;-57
2023/10/29 22:35:20;;;;;;;14.75;6.25;;;20.50;74.90;;;;;;5075818;28;20035;-57
2023/10/29 22:37:46;;;;;;;10.75;5.35;;;20.50;75.00;;;;;;5082983;28;20104;-56
2023/10/29 22:40:12;;;;;;;14.65;5.85;;;20.50;75.10;;;;;;5077970;28;20388;-53
2023/10/29 22:42:38;;;;;;;10.85;5.25;;;20.50;75.00;;;;;;5082172;28;20493;-57
2023/10/29 22:45:04;;;;;;;11.52;5.00;;;20.50;74.80;;;;;;5082498;28;20127;-57
2023/10/29 22:47:30;;;;;;;11.55;5.00;;;20.50;75.30;;;;;;5082866;28;20024;-56
2023/10/29 22:49:56;;;;;;;11.20;4.80;;;20.40;74.90;;;;;;5073506;28;20089;-56
2023/10/29 22:52:22;;;;;;;14.63;5.90;;;20.40;75.00;;;;;;5075796;28;20039;-58
2023/10/29 22:54:48;;;;;;;16.98;5.70;;;20.50;74.30;;;;;;5073716;28;20388;-57
2023/10/29 22:57:14;;;;;;;26.52;5.40;;;20.50;74.80;;;;;;5071472;28;20024;-57
2023/10/29 22:59:40;;;;;;;19.00;5.68;;;20.50;74.50;;;;;;5072420;28;20028;-58
2023/10/29 23:02:06;;;;;;;20.38;5.47;;;20.50;75.30;;;;;;5070962;28;20029;-58
2023/10/29 23:04:32;;;;;;;17.50;5.22;;;20.50;75.60;;;;;;5074514;28;20471;-57
2023/10/29 23:06:59;;;;;;;20.65;4.50;;;20.50;75.60;;;;;;5071628;28;20109;-55
2023/10/29 23:09:25;;;;;;;15.75;4.53;;;20.50;72.50;;;;;;5073393;28;20028;-58
2023/10/29 23:11:51;;;;;;;13.38;4.20;;;20.50;71.20;;;;;;5074834;28;20483;-57
2023/10/29 23:14:18;;;;;;;16.02;4.25;;;20.40;70.70;;;;;;5073822;28;20023;-57
2023/10/29 23:16:44;;;;;;;28.73;4.47;;;20.40;71.00;;;;;;5074334;28;20028;-58
2023/10/29 23:19:10;;;;;;;21.98;4.55;;;20.40;71.40;;;;;;5070816;28;20432;-55
2023/10/29 23:21:36;;;;;;;11.98;3.75;;;20.40;72.80;;;;;;5073592;28;20539;-58
2023/10/29 23:24:01;;;;;;;20.30;4.07;;;20.40;73.30;;;;;;5074127;28;20377;-58
2023/10/29 23:26:29;;;;;;;11.70;3.90;;;20.40;73.40;;;;;;5073932;28;20024;-59
2023/10/29 23:28:55;;;;;;;12.18;3.70;;;20.40;72.90;;;;;;5072061;28;20127;-59
2023/10/29 23:31:21;;;;;;;9.73;3.95;;;20.40;73.00;;;;;;5072174;28;20095;-57
2023/10/29 23:33:46;;;;;;;12.52;3.60;;;20.40;73.20;;;;;;5073323;28;20043;-58
2023/10/29 23:36:12;;;;;;;14.27;3.83;;;20.40;73.10;;;;;;5073044;28;20060;-56
2023/10/29 23:38:38;;;;;;;10.10;3.85;;;20.40;73.60;;;;;;5071465;28;20036;-58
2023/10/29 23:41:04;;;;;;;12.60;4.18;;;20.40;73.20;;;;;;5072911;28;20376;-58
2023/10/29 23:43:30;;;;;;;13.60;3.53;;;20.30;73.30;;;;;;5073385;28;20048;-57
2023/10/29 23:45:56;;;;;;;10.75;4.32;;;20.40;73.40;;;;;;5073756;28;20083;-57
2023/10/29 23:48:22;;;;;;;9.18;3.95;;;20.30;73.30;;;;;;5073070;28;20054;-59
2023/10/29 23:50:47;;;;;;;13.88;3.10;;;20.40;73.50;;;;;;5071346;28;20622;-58
2023/10/29 23:53:13;;;;;;;15.48;4.15;;;20.30;74.10;;;;;;5071882;28;20020;-57
2023/10/29 23:55:39;;;;;;;14.63;3.55;;;20.30;73.60;;;;;;5072444;28;20398;-55
2023/10/29 23:58:05;;;;;;;14.82;3.95;;;20.40;73.60;;;;;;5073135;28;20032;-59
